International Virtual Aviation Organisation

Eastern Europe and Northern Asia MCD

 
URMG 121230Z 29002MPS 250V310 9999 -RA OVC034 14/07 Q1020 R26/090070 NOSIG RMK QFE750/1001
QNH:(hPa/inHg/mmHg)1020 / 30.12 / 765
QFE:(hPa/inHg/mmHg)1000 / 29.52 / 750
Temperature14
Dew Point7
Visibility> 10000
WeatherLight Rain
Cloud CoverOVC (3400);
Transition Height1700 m./6200 ft.
Transition LevelFL70
SQUAWK